Time;durP1;ratioP1;P1;durP2;ratioP2;P2;SDS_P1;SDS_P2;PMS_P1;PMS_P2;Temp;Humidity;BMP_temperature;BMP_pressure;BME280_temperature;BME280_humidity;BME280_pressure;Samples;Min_cycle;Max_cycle;Signal;HPM_P1;HPM_P2
2022/05/04 00:03:03;;;;;;;;;;;;;;;10.98;63.06;100311.73;1796932;80;20238;-60
2022/05/04 00:06:10;;;;;;;;;;;;;;;11.00;63.05;100311.04;1796897;80;20241;-61
2022/05/04 00:09:18;;;;;;;;;;;;;;;11.00;63.02;100311.04;1796778;80;20512;-60
2022/05/04 00:12:25;;;;;;;;;;;;;;;11.02;63.00;100314.46;1796775;80;20190;-61
2022/05/04 00:15:31;;;;;;;;;;;;;;;11.00;62.97;100309.16;1796864;80;20205;-61
2022/05/04 00:18:38;;;;;;;;;;;;;;;11.02;62.91;100311.72;1796774;80;20549;-60
2022/05/04 00:21:43;;;;;;;;;;;;;;;11.03;62.91;100314.28;1796780;80;20188;-61
2022/05/04 00:24:48;;;;;;;;;;;;;;;11.05;62.87;100318.20;1796766;80;20202;-61
2022/05/04 00:27:48;;;;;;;;;;;;;;;11.06;62.93;100310.31;1796796;80;20212;-60
2022/05/04 00:30:54;;;;;;;;;;;;;;;11.07;62.94;100307.93;1796771;80;20182;-61
2022/05/04 00:34:00;;;;;;;;;;;;;;;11.07;62.94;100307.39;1796892;80;20170;-61
2022/05/04 00:37:04;;;;;;;;;;;;;;;11.07;62.96;100304.66;1796763;80;20225;-60
2022/05/04 00:40:08;;;;;;;;;;;;;;;11.09;63.00;100307.21;1791666;80;20592;-61
2022/05/04 00:43:13;;;;;;;;;;;;;;;11.07;63.06;100313.41;1794493;80;20206;-61
2022/05/04 00:46:18;;;;;;;;;;;;;;;11.03;63.14;100303.83;1738574;80;20186;-61
2022/05/04 00:49:23;;;;;;;;;;;;;;;11.00;63.25;100311.04;1794530;80;20177;-61
2022/05/04 00:52:28;;;;;;;;;;;;;;;10.94;63.35;100313.97;1794511;80;20193;-61
2022/05/04 00:55:33;;;;;;;;;;;;;;;10.90;63.44;100307.16;1773816;80;20178;-61
2022/05/04 00:58:57;;;;;;;;;;;;;;;10.87;63.52;100306.66;1794487;80;20178;-61
2022/05/04 01:02:04;;;;;;;;;;;;;;;10.82;63.64;100304.97;1794636;80;20257;-62
2022/05/04 01:05:10;;;;;;;;;;;;;;;10.76;63.78;100306.55;1794458;80;20190;-62
2022/05/04 01:08:15;;;;;;;;;;;;;;;10.71;63.91;100298.53;1773831;80;20261;-61
2022/05/04 01:11:22;;;;;;;;;;;;;;;10.66;64.07;100300.44;1794509;80;20258;-61
2022/05/04 01:14:28;;;;;;;;;;;;;;;10.63;64.20;100306.77;1794469;80;20245;-62
2022/05/04 01:17:34;;;;;;;;;;;;;;;10.61;64.35;100299.28;1794439;80;20217;-61
2022/05/04 01:20:39;;;;;;;;;;;;;;;10.58;64.47;100304.07;1771996;80;20182;-60
2022/05/04 01:23:51;;;;;;;;;;;;;;;10.56;64.65;100303.89;1665452;85;20229;-60
2022/05/04 01:26:55;;;;;;;;;;;;;;;10.51;64.99;100296.22;1677393;85;20455;-61
2022/05/04 01:30:01;;;;;;;;;;;;;;;10.45;65.14;100296.94;1677464;85;20272;-61
2022/05/04 01:33:07;;;;;;;;;;;;;;;10.40;65.27;100293.88;1677348;85;20205;-60
2022/05/04 01:36:14;;;;;;;;;;;;;;;10.38;65.40;100300.06;1677351;85;20192;-61
2022/05/04 01:39:19;;;;;;;;;;;;;;;10.34;65.53;100294.58;1677330;85;20616;-60
2022/05/04 01:42:24;;;;;;;;;;;;;;;10.33;65.59;100297.50;1677337;85;20205;-60
2022/05/04 01:45:29;;;;;;;;;;;;;;;10.31;65.65;100298.18;1677374;85;20517;-60
2022/05/04 01:48:35;;;;;;;;;;;;;;;10.26;65.72;100294.61;1677362;85;20576;-60
2022/05/04 01:51:40;;;;;;;;;;;;;;;10.25;65.86;100298.89;1677355;85;20197;-61
2022/05/04 01:54:44;;;;;;;;;;;;;;;10.19;65.95;100294.99;1655817;85;20197;-60
2022/05/04 01:57:48;;;;;;;;;;;;;;;10.12;66.01;100299.44;1678185;83;20204;-61
2022/05/04 02:00:53;;;;;;;;;;;;;;;10.10;66.24;100302.86;1677325;85;20583;-60
2022/05/04 02:03:59;;;;;;;;;;;;;;;10.06;66.41;100317.03;1677313;85;20205;-61
2022/05/04 02:07:05;;;;;;;;;;;;;;;10.02;66.50;100310.22;1677454;85;20330;-61
2022/05/04 02:10:11;;;;;;;;;;;;;;;10.01;66.68;100320.29;1677452;85;20529;-61
2022/05/04 02:13:16;;;;;;;;;;;;;;;9.98;66.89;100313.80;1677313;85;20225;-61
2022/05/04 02:16:25;;;;;;;;;;;;;;;9.97;67.01;100312.61;1677331;85;20220;-62
2022/05/04 02:19:32;;;;;;;;;;;;;;;9.93;67.21;100310.73;1677282;85;20228;-61
2022/05/04 02:22:39;;;;;;;;;;;;;;;9.92;67.26;100312.27;1678911;81;20268;-61
2022/05/04 02:25:44;;;;;;;;;;;;;;;9.92;67.38;100303.56;1678952;83;20248;-61
2022/05/04 02:28:48;;;;;;;;;;;;;;;9.91;67.49;100304.58;1677537;84;20197;-61
2022/05/04 02:31:58;;;;;;;;;;;;;;;9.86;67.44;100302.04;1677507;85;20256;-61
2022/05/04 02:38:25;;;;;;;;;;;;;;;9.87;67.67;100311.43;1677223;85;20213;-62
2022/05/04 02:41:30;;;;;;;;;;;;;;;9.89;67.72;100310.75;1677319;85;20200;-60
2022/05/04 02:44:35;;;;;;;;;;;;;;;9.91;67.85;100312.78;1677729;83;20193;-60
2022/05/04 02:47:41;;;;;;;;;;;;;;;9.90;67.86;100317.92;1677846;84;20205;-61
2022/05/04 02:50:48;;;;;;;;;;;;;;;9.89;68.03;100316.22;1677197;85;20213;-62
2022/05/04 02:53:53;;;;;;;;;;;;;;;9.87;68.11;100321.00;1690539;84;20244;-61
2022/05/04 02:56:57;;;;;;;;;;;;;;;9.86;68.29;100321.17;1678467;83;20240;-61
2022/05/04 03:00:02;;;;;;;;;;;;;;;9.85;68.59;100326.28;1677300;85;20197;-62
2022/05/04 03:03:07;;;;;;;;;;;;;;;9.86;68.84;100322.55;1677443;84;20784;-61
2022/05/04 03:06:11;;;;;;;;;;;;;;;9.86;69.08;100333.48;1677786;84;20557;-60
2022/05/04 03:09:17;;;;;;;;;;;;;;;9.86;69.21;100330.75;1669116;83;20203;-61
2022/05/04 03:12:22;;;;;;;;;;;;;;;9.88;69.33;100336.87;1659300;85;20215;-61
2022/05/04 03:15:26;;;;;;;;;;;;;;;9.88;69.45;100332.27;1659307;85;20564;-61
2022/05/04 03:18:32;;;;;;;;;;;;;;;9.91;69.62;100332.45;1648147;86;20211;-60
2022/05/04 03:21:39;;;;;;;;;;;;;;;9.96;69.90;100329.52;1661236;85;20227;-61
2022/05/04 03:24:47;;;;;;;;;;;;;;;10.02;70.02;100334.30;1668199;83;20614;-61
2022/05/04 03:27:53;;;;;;;;;;;;;;;10.09;70.07;100332.62;1672656;85;20196;-62
2022/05/04 03:30:59;;;;;;;;;;;;;;;10.17;70.00;100335.34;1671248;85;20531;-62
2022/05/04 03:34:06;;;;;;;;;;;;;;;10.26;70.04;100339.75;1673264;85;20231;-61
2022/05/04 03:37:11;;;;;;;;;;;;;;;10.35;70.01;100345.53;1652144;85;20199;-62
2022/05/04 03:40:20;;;;;;;;;;;;;;;10.45;69.91;100344.83;1671861;85;20198;-62
2022/05/04 03:43:26;;;;;;;;;;;;;;;10.58;69.83;100354.38;1673060;85;20243;-61
2022/05/04 03:46:32;;;;;;;;;;;;;;;10.69;69.62;100357.56;1673399;85;20555;-62
2022/05/04 03:49:37;;;;;;;;;;;;;;;10.84;69.35;100345.36;1670334;85;20195;-62
2022/05/04 03:52:42;;;;;;;;;;;;;;;10.99;69.10;100346.33;1671508;85;20208;-62
2022/05/04 03:55:48;;;;;;;;;;;;;;;11.16;68.84;100360.26;1672237;85;20485;-62
2022/05/04 03:58:54;;;;;;;;;;;;;;;11.29;68.39;100354.52;1673399;85;20242;-62
2022/05/04 04:02:00;;;;;;;;;;;;;;;11.41;67.92;100353.58;1672454;85;20519;-62
2022/05/04 04:05:06;;;;;;;;;;;;;;;11.51;67.55;100351.47;1671769;85;20203;-61
2022/05/04 04:08:11;;;;;;;;;;;;;;;11.60;67.15;100345.74;1652559;85;20203;-62
2022/05/04 04:11:16;;;;;;;;;;;;;;;11.71;66.82;100345.34;1671793;85;20282;-63
2022/05/04 04:14:21;;;;;;;;;;;;;;;11.86;66.68;100356.36;1651714;85;20251;-62
2022/05/04 04:17:25;;;;;;;;;;;;;;;11.98;66.30;100357.61;1672287;85;20609;-62
2022/05/04 04:23:58;;;;;;;;;;;;;;;12.22;65.56;100356.52;1676904;85;20589;-61
2022/05/04 04:27:03;;;;;;;;;;;;;;;12.33;65.17;100352.80;1679027;81;20563;-62
2022/05/04 04:30:12;;;;;;;;;;;;;;;12.47;64.95;100351.09;1677952;85;20205;-63
2022/05/04 04:33:18;;;;;;;;;;;;;;;12.61;64.67;100349.73;1677992;85;20525;-61
2022/05/04 04:36:23;;;;;;;;;;;;;;;12.75;64.16;100347.50;1677564;85;20533;-61
2022/05/04 04:39:31;;;;;;;;;;;;;;;12.91;63.74;100345.92;1677141;85;20213;-61
2022/05/04 04:42:35;;;;;;;;;;;;;;;13.05;63.38;100338.74;1677866;85;20529;-62
2022/05/04 04:45:40;;;;;;;;;;;;;;;13.20;63.04;100339.03;1667905;85;20625;-62
2022/05/04 04:48:46;;;;;;;;;;;;;;;13.32;62.51;100331.97;1654182;85;20672;-62
2022/05/04 04:51:51;;;;;;;;;;;;;;;13.41;62.25;100328.59;1677055;85;20565;-61
2022/05/04 04:54:56;;;;;;;;;;;;;;;13.48;61.92;100322.09;1652561;85;20181;-61
2022/05/04 04:58:01;;;;;;;;;;;;;;;13.53;61.33;100327.87;1673796;84;20248;-63
2022/05/04 05:01:07;;;;;;;;;;;;;;;13.57;61.86;100331.08;1677507;85;20361;-61
2022/05/04 05:04:12;;;;;;;;;;;;;;;14.09;81.35;100336.20;1649418;86;20634;-61
2022/05/04 05:07:16;;;;;;;;;;;;;;;13.89;84.24;100330.52;1648429;86;20223;-61
2022/05/04 05:10:24;;;;;;;;;;;;;;;13.79;81.71;100326.41;1649531;86;20236;-63
2022/05/04 05:13:32;;;;;;;;;;;;;;;13.78;80.27;100332.98;1650446;85;20259;-62
2022/05/04 05:16:38;;;;;;;;;;;;;;;14.25;90.03;100327.67;1659103;85;20662;-60
2022/05/04 05:19:43;;;;;;;;;;;;;;;13.98;88.36;100348.61;1648954;84;20227;-61
2022/05/04 05:22:50;;;;;;;;;;;;;;;14.12;86.72;100334.42;1675811;85;20576;-61
2022/05/04 05:25:54;;;;;;;;;;;;;;;14.23;85.66;100329.73;1677935;81;20201;-62
2022/05/04 05:28:59;;;;;;;;;;;;;;;14.80;93.53;100342.23;1675478;85;20216;-62
2022/05/04 05:32:06;;;;;;;;;;;;;;;14.89;99.54;100331.35;1677270;85;20260;-61
2022/05/04 05:35:12;;;;;;;;;;;;;;;15.03;100.00;100325.39;1652844;84;20259;-61
2022/05/04 05:38:20;;;;;;;;;;;;;;;15.31;100.00;100331.63;1664152;84;20552;-62
2022/05/04 05:41:23;;;;;;;;;;;;;;;15.56;100.00;100327.27;1668191;84;20212;-63
2022/05/04 05:44:31;;;;;;;;;;;;;;;15.82;100.00;100329.22;1641121;85;20206;-61
2022/05/04 05:47:39;;;;;;;;;;;;;;;16.07;100.00;100327.52;1653270;85;20219;-58
2022/05/04 05:50:45;;;;;;;;;;;;;;;16.32;100.00;100325.81;1662586;85;20208;-62
2022/05/04 05:53:50;;;;;;;;;;;;;;;16.48;100.00;100327.30;1660939;84;20667;-61
2022/05/04 05:56:55;;;;;;;;;;;;;;;16.64;100.00;100328.23;1651812;85;20240;-62
2022/05/04 06:00:01;;;;;;;;;;;;;;;16.79;100.00;100331.05;1662942;84;20205;-59
2022/05/04 06:03:08;;;;;;;;;;;;;;;16.89;100.00;100331.45;1673807;85;20205;-62
2022/05/04 06:06:13;;;;;;;;;;;;;;;16.98;100.00;100323.78;1668429;85;20604;-60
2022/05/04 06:09:18;;;;;;;;;;;;;;;16.97;100.00;100322.92;1672314;85;20579;-63
2022/05/04 06:12:28;;;;;;;;;;;;;;;16.94;100.00;100321.11;1670112;85;20199;-60
2022/05/04 06:15:33;;;;;;;;;;;;;;;16.96;100.00;100322.61;1653639;84;20275;-61
2022/05/04 06:18:36;;;;;;;;;;;;;;;16.95;100.00;100315.92;1649807;85;20576;-61
2022/05/04 06:21:41;;;;;;;;;;;;;;;16.95;100.00;100314.54;1669863;85;20230;-62
2022/05/04 06:24:48;;;;;;;;;;;;;;;16.96;100.00;100306.02;1661752;85;20216;-62
2022/05/04 06:27:55;;;;;;;;;;;;;;;16.98;100.00;100312.72;1669673;80;20573;-62
2022/05/04 06:34:32;;;;;;;;;;;;;;;17.07;100.00;100313.63;1656286;84;20227;-63
2022/05/04 06:37:37;;;;;;;;;;;;;;;17.18;100.00;100314.33;1653941;85;20237;-61
2022/05/04 06:40:42;;;;;;;;;;;;;;;17.24;100.00;100313.96;1649680;84;20591;-62
2022/05/04 06:43:55;;;;;;;;;;;;;;;17.32;100.00;100316.48;1653218;85;20230;-61
2022/05/04 06:47:18;;;;;;;;;;;;;;;17.34;100.00;100317.11;1664991;85;20570;-62
2022/05/04 06:50:24;;;;;;;;;;;;;;;17.41;100.00;100315.17;1676529;85;20213;-61
2022/05/04 06:53:33;;;;;;;;;;;;;;;17.44;100.00;100311.44;1675145;85;20217;-61
2022/05/04 06:56:43;;;;;;;;;;;;;;;17.55;100.00;100308.52;1668211;83;20240;-62
2022/05/04 06:59:49;;;;;;;;;;;;;;;17.72;100.00;100311.91;1668783;85;20725;-60
2022/05/04 07:03:08;;;;;;;;;;;;;;;17.89;100.00;100309.42;1665908;84;20563;-56
2022/05/04 07:06:14;;;;;;;;;;;;;;;18.01;100.00;100313.19;1675015;85;20256;-60
2022/05/04 07:09:19;;;;;;;;;;;;;;;18.14;100.00;100311.66;1652271;85;20211;-62
2022/05/04 07:12:51;;;;;;;;;;;;;;;18.29;100.00;100312.18;1671335;85;20289;-60
2022/05/04 07:16:32;;;;;;;;;;;;;;;18.38;100.00;100312.23;1667707;85;20285;-61
2022/05/04 07:19:43;;;;;;;;;;;;;;;18.39;100.00;100308.92;1668310;84;20232;-59
2022/05/04 07:22:59;;;;;;;;;;;;;;;18.37;100.00;100299.95;1672260;85;20209;-59
2022/05/04 07:26:03;;;;;;;;;;;;;;;18.40;100.00;100305.92;1675008;85;20240;-60
2022/05/04 07:29:10;;;;;;;;;;;;;;;18.49;100.00;100305.92;1680533;80;20227;-59
2022/05/04 07:32:22;;;;;;;;;;;;;;;18.57;100.00;100311.18;1674774;85;20218;-60
2022/05/04 07:35:28;;;;;;;;;;;;;;;18.63;100.00;100308.87;1687994;84;20227;-59
2022/05/04 07:38:31;;;;;;;;;;;;;;;18.71;100.00;100301.63;1675635;84;20280;-60
2022/05/04 07:45:15;;;;;;;;;;;;;;;18.85;100.00;100303.17;1677887;85;20208;-60
2022/05/04 07:48:21;;;;;;;;;;;;;;;18.92;100.00;100298.41;1664501;86;20249;-58
2022/05/04 07:51:27;;;;;;;;;;;;;;;18.98;100.00;100296.65;1688278;85;20208;-54
2022/05/04 07:54:33;;;;;;;;;;;;;;;19.04;100.00;100299.31;1668887;85;20210;-59
2022/05/04 07:57:39;;;;;;;;;;;;;;;19.13;100.00;100297.94;1690593;84;20541;-59
2022/05/04 08:04:18;;;;;;;;;;;;;;;19.30;100.00;100292.61;1686123;85;20219;-57
2022/05/04 08:07:23;;;;;;;;;;;;;;;19.39;100.00;100292.61;1685700;85;20234;-58
2022/05/04 08:10:49;;;;;;;;;;;;;;;19.47;100.00;100290.03;1687477;83;20219;-59
2022/05/04 08:14:02;;;;;;;;;;;;;;;19.52;100.00;100286.02;1674100;83;20264;-60
2022/05/04 08:17:03;;;;;;;;;;;;;;;19.59;100.00;100282.05;1644389;86;20336;-61
2022/05/04 08:20:29;;;;;;;;;;;;;;;19.67;100.00;100285.02;1685080;82;20242;-59
2022/05/04 08:23:37;;;;;;;;;;;;;;;19.77;100.00;100279.21;1694060;84;20212;-59
2022/05/04 08:26:45;;;;;;;;;;;;;;;19.84;100.00;100277.69;1687569;84;20252;-60
2022/05/04 08:29:52;;;;;;;;;;;;;;;19.91;100.00;100271.50;1682327;84;20527;-59
2022/05/04 08:32:58;;;;;;;;;;;;;;;20.01;100.00;100276.76;1683677;83;20232;-60
2022/05/04 08:39:22;;;;;;;;;;;;;;;20.27;100.00;100265.76;1679557;80;20322;-61
2022/05/04 08:42:36;;;;;;;;;;;;;;;20.49;100.00;100265.45;1696671;83;20278;-61
2022/05/04 08:48:55;;;;;;;;;;;;;;;20.79;100.00;100268.91;1647732;86;20213;-59
2022/05/04 08:52:06;;;;;;;;;;;;;;;20.87;100.00;100256.02;1656540;86;20275;-59
2022/05/04 08:55:11;;;;;;;;;;;;;;;20.90;100.00;100256.91;1649029;85;20221;-59
2022/05/04 08:58:18;;;;;;;;;;;;;;;21.02;100.00;100262.48;1649949;86;20265;-59
2022/05/04 09:01:23;;;;;;;;;;;;;;;21.17;100.00;100253.90;1669888;85;20219;-59
2022/05/04 09:04:31;;;;;;;;;;;;;;;21.41;100.00;100251.32;1666205;86;20231;-59
2022/05/04 09:07:38;;;;;;;;;;;;;;;21.59;100.00;100248.34;1673346;85;20263;-59
2022/05/04 09:10:47;;;;;;;;;;;;;;;21.76;100.00;100246.98;1673497;86;20226;-59
2022/05/04 09:14:05;;;;;;;;;;;;;;;21.82;100.00;100233.42;1665888;86;20255;-60
2022/05/04 09:17:16;;;;;;;;;;;;;;;21.82;100.00;100230.09;1677849;83;20239;-59
2022/05/04 09:23:43;;;;;;;;;;;;;;;21.99;100.00;100225.36;1675083;84;20219;-60
2022/05/04 09:26:49;;;;;;;;;;;;;;;22.26;100.00;100227.47;1674850;85;20218;-60
2022/05/04 09:30:16;;;;;;;;;;;;;;;22.24;100.00;100234.70;1668134;86;20530;-61
2022/05/04 09:33:35;;;;;;;;;;;;;;;22.02;100.00;100237.97;1676642;85;20615;-59
2022/05/04 09:46:50;;;;;;;;;;;;;;;19.41;100.00;100271.55;1656118;85;20243;-57
2022/05/04 09:49:56;;;;;;;;;;;;;;;18.99;100.00;100275.61;1667041;86;20592;-59
2022/05/04 09:53:02;;;;;;;;;;;;;;;18.84;100.00;100260.41;1667183;86;20307;-59
2022/05/04 09:56:05;;;;;;;;;;;;;;;18.86;100.00;100261.03;1651897;86;20219;-59
2022/05/04 09:59:12;;;;;;;;;;;;;;;18.99;100.00;100253.41;1657025;86;20588;-59
2022/05/04 10:02:21;;;;;;;;;;;;;;;19.11;100.00;100254.30;1657471;86;20623;-60
2022/05/04 10:05:28;;;;;;;;;;;;;;;19.23;100.00;100244.64;1662851;84;20199;-60
2022/05/04 10:08:32;;;;;;;;;;;;;;;19.33;100.00;100241.63;1633503;87;20660;-58
2022/05/04 10:11:40;;;;;;;;;;;;;;;19.49;100.00;100242.06;1656967;84;20254;-55
2022/05/04 10:14:47;;;;;;;;;;;;;;;19.54;100.00;100246.34;1648633;86;20216;-59
2022/05/04 10:18:04;;;;;;;;;;;;;;;19.49;100.00;100246.23;1655348;86;20311;-57
2022/05/04 10:21:19;;;;;;;;;;;;;;;19.41;100.00;100249.34;1666333;86;20219;-56
2022/05/04 10:24:41;;;;;;;;;;;;;;;19.32;100.00;100246.03;1631290;86;20224;-57
2022/05/04 10:27:50;;;;;;;;;;;;;;;19.19;100.00;100246.19;1655319;86;20255;-57
2022/05/04 10:31:01;;;;;;;;;;;;;;;19.04;100.00;100246.59;1650566;86;20521;-57
2022/05/04 10:34:09;;;;;;;;;;;;;;;18.96;100.00;100251.07;1571142;91;20209;-51
2022/05/04 10:37:15;;;;;;;;;;;;;;;18.91;100.00;100256.50;1600731;89;20273;-52
2022/05/04 10:40:22;;;;;;;;;;;;;;;18.88;100.00;100258.36;1625519;82;20187;-52
2022/05/04 10:43:45;;;;;;;;;;;;;;;18.86;100.00;100257.73;1593719;89;20261;-53
2022/05/04 10:47:02;;;;;;;;;;;;;;;18.90;100.00;100260.33;1620310;87;20540;-56
2022/05/04 10:50:09;;;;;;;;;;;;;;;18.88;100.00;100259.74;1635182;86;20207;-52
2022/05/04 10:53:35;;;;;;;;;;;;;;;18.87;100.00;100259.41;1678347;85;20199;-52
2022/05/04 10:57:11;;;;;;;;;;;;;;;18.84;100.00;100252.95;1664576;84;20788;-51
2022/05/04 11:00:20;;;;;;;;;;;;;;;18.84;100.00;100252.95;1706373;82;20351;-52
2022/05/04 11:03:29;;;;;;;;;;;;;;;18.91;100.00;100248.17;1621717;87;20281;-53
2022/05/04 11:06:38;;;;;;;;;;;;;;;19.00;100.00;100246.77;1672382;84;20263;-51
2022/05/04 11:09:47;;;;;;;;;;;;;;;19.12;100.00;100246.83;1659459;85;20270;-52
2022/05/04 11:12:53;;;;;;;;;;;;;;;19.25;100.00;100244.70;1679607;85;20613;-53
2022/05/04 11:16:01;;;;;;;;;;;;;;;19.37;100.00;100233.69;1670069;85;20672;-52
2022/05/04 11:19:08;;;;;;;;;;;;;;;19.51;100.00;100231.54;1680783;84;20649;-57
2022/05/04 11:22:18;;;;;;;;;;;;;;;19.65;100.00;100235.80;1679850;84;20262;-58
2022/05/04 11:25:25;;;;;;;;;;;;;;;19.77;100.00;100227.82;1676922;84;20258;-58
2022/05/04 11:28:35;;;;;;;;;;;;;;;19.82;100.00;100239.59;1680135;85;20448;-57
2022/05/04 11:31:39;;;;;;;;;;;;;;;19.90;100.00;100233.69;1682632;84;20203;-57
2022/05/04 11:34:46;;;;;;;;;;;;;;;19.97;100.00;100225.53;1680410;85;20211;-58
2022/05/04 11:37:57;;;;;;;;;;;;;;;20.10;100.00;100223.92;1677137;85;20227;-59
2022/05/04 11:41:12;;;;;;;;;;;;;;;20.21;100.00;100220.86;1661310;84;20285;-57
2022/05/04 11:44:24;;;;;;;;;;;;;;;20.27;100.00;100217.10;1686354;84;20231;-56
2022/05/04 11:47:30;;;;;;;;;;;;;;;20.27;100.00;100219.88;1672980;84;20244;-57
2022/05/04 11:50:36;;;;;;;;;;;;;;;20.17;100.00;100216.89;1689027;84;20547;-59
2022/05/04 11:53:46;;;;;;;;;;;;;;;20.06;100.00;100212.14;1665503;83;20223;-58
2022/05/04 11:57:10;;;;;;;;;;;;;;;19.90;100.00;100215.63;1675998;85;20187;-59
2022/05/04 12:00:25;;;;;;;;;;;;;;;19.72;100.00;100218.49;1674436;85;20258;-55
2022/05/04 12:03:32;;;;;;;;;;;;;;;19.52;100.00;100217.98;1675685;85;20619;-55
2022/05/04 12:06:37;;;;;;;;;;;;;;;19.39;100.00;100226.50;1674714;85;20231;-56
2022/05/04 12:09:45;;;;;;;;;;;;;;;19.26;100.00;100222.83;1669491;85;20289;-54
2022/05/04 12:12:53;;;;;;;;;;;;;;;19.11;100.00;100215.45;1674499;84;20215;-54
2022/05/04 12:15:59;;;;;;;;;;;;;;;18.98;100.00;100215.62;1672729;85;20603;-54
2022/05/04 12:19:12;;;;;;;;;;;;;;;18.82;100.00;100213.49;1677837;84;20239;-55
2022/05/04 12:22:18;;;;;;;;;;;;;;;18.70;100.00;100218.14;1675050;85;20219;-56
2022/05/04 12:25:28;;;;;;;;;;;;;;;18.61;100.00;100220.93;1663014;84;20626;-54
2022/05/04 12:28:34;;;;;;;;;;;;;;;18.53;100.00;100220.37;1647767;85;20225;-55
2022/05/04 12:35:00;;;;;;;;;;;;;;;18.38;100.00;100224.05;1675518;85;20215;-53
2022/05/04 12:38:05;;;;;;;;;;;;;;;18.32;100.00;100230.49;1662335;85;20202;-53
2022/05/04 12:41:14;;;;;;;;;;;;;;;18.31;100.00;100230.19;1680455;85;20579;-52
2022/05/04 12:44:21;;;;;;;;;;;;;;;18.25;100.00;100225.02;1678847;85;20610;-54
2022/05/04 12:47:27;;;;;;;;;;;;;;;18.21;100.00;100230.72;1679456;85;20210;-55
2022/05/04 12:50:34;;;;;;;;;;;;;;;18.17;100.00;100230.85;1679955;85;20222;-54
2022/05/04 12:53:39;;;;;;;;;;;;;;;18.14;100.00;100234.08;1680355;84;20558;-52
2022/05/04 12:56:48;;;;;;;;;;;;;;;18.09;100.00;100229.79;1669951;85;20543;-54
2022/05/04 12:59:53;;;;;;;;;;;;;;;18.08;100.00;100229.98;1673209;85;20220;-55
2022/05/04 13:02:58;;;;;;;;;;;;;;;18.05;100.00;100224.91;1659034;85;20278;-53
2022/05/04 13:06:04;;;;;;;;;;;;;;;18.04;100.00;100225.47;1645792;86;20222;-56
2022/05/04 13:09:11;;;;;;;;;;;;;;;18.06;100.00;100223.30;1652140;85;20548;-54
2022/05/04 13:12:17;;;;;;;;;;;;;;;18.10;100.00;100229.23;1699122;83;20214;-54
2022/05/04 13:15:22;;;;;;;;;;;;;;;18.17;100.00;100229.47;1679079;85;20257;-54
2022/05/04 13:18:26;;;;;;;;;;;;;;;18.29;100.00;100223.50;1631451;88;20587;-52
2022/05/04 13:21:33;;;;;;;;;;;;;;;18.35;100.00;100226.73;1683432;85;20286;-54
2022/05/04 13:24:42;;;;;;;;;;;;;;;18.44;100.00;100236.45;1667996;85;20210;-57
2022/05/04 13:27:52;;;;;;;;;;;;;;;18.55;100.00;100231.53;1684140;85;20278;-56
2022/05/04 13:31:04;;;;;;;;;;;;;;;18.69;100.00;100233.63;1683577;85;20254;-56
2022/05/04 13:34:10;;;;;;;;;;;;;;;18.81;100.00;100235.39;1679111;85;20218;-56
2022/05/04 13:37:15;;;;;;;;;;;;;;;18.91;100.00;100240.38;1678692;85;20218;-58
2022/05/04 13:40:21;;;;;;;;;;;;;;;19.01;100.00;100235.14;1677694;84;20591;-55
2022/05/04 13:43:28;;;;;;;;;;;;;;;19.11;100.00;100241.81;1633331;84;20277;-57
2022/05/04 13:46:36;;;;;;;;;;;;;;;19.22;100.00;100242.40;1652681;85;20207;-58
2022/05/04 13:49:44;;;;;;;;;;;;;;;19.36;100.00;100246.41;1654621;86;20692;-59
2022/05/04 13:53:17;;;;;;;;;;;;;;;19.41;100.00;100239.62;1643726;85;20218;-60
2022/05/04 13:56:27;;;;;;;;;;;;;;;19.43;100.00;100247.14;1654663;86;20215;-59
2022/05/04 13:59:37;;;;;;;;;;;;;;;19.39;99.79;100252.88;1657388;85;20204;-60
2022/05/04 14:03:01;;;;;;;;;;;;;;;19.29;98.52;100262.63;1652056;85;20538;-61
2022/05/04 14:06:10;;;;;;;;;;;;;;;19.18;97.59;100257.84;1656291;86;20219;-61
2022/05/04 14:09:18;;;;;;;;;;;;;;;19.12;97.16;100264.31;1650865;86;20214;-61
2022/05/04 14:12:25;;;;;;;;;;;;;;;19.15;97.88;100268.56;1667298;85;20210;-61
2022/05/04 14:15:31;;;;;;;;;;;;;;;19.14;98.86;100271.02;1632337;87;20209;-61
2022/05/04 14:18:38;;;;;;;;;;;;;;;19.12;97.92;100271.25;1580776;91;20604;-63
2022/05/04 14:21:43;;;;;;;;;;;;;;;19.15;96.88;100281.88;1584014;89;20241;-61
2022/05/04 14:24:55;;;;;;;;;;;;;;;19.17;97.04;100281.67;1576490;89;20228;-62
2022/05/04 14:28:05;;;;;;;;;;;;;;;19.21;97.62;100287.05;1593642;90;20604;-60
2022/05/04 14:31:15;;;;;;;;;;;;;;;19.23;96.58;100282.12;1622103;88;20221;-58
2022/05/04 14:34:23;;;;;;;;;;;;;;;19.24;95.82;100296.30;1625293;88;20237;-58
2022/05/04 14:37:30;;;;;;;;;;;;;;;19.22;95.14;100299.30;1625575;87;20221;-59
2022/05/04 14:40:36;;;;;;;;;;;;;;;19.20;94.58;100290.36;1637952;86;20255;-59
2022/05/04 14:43:41;;;;;;;;;;;;;;;19.20;95.47;100298.68;1655150;80;20216;-58
2022/05/04 14:46:48;;;;;;;;;;;;;;;19.27;94.94;100305.00;1633517;86;20224;-58
2022/05/04 14:49:51;;;;;;;;;;;;;;;19.27;94.20;100303.62;1632001;86;20253;-60
2022/05/04 14:52:58;;;;;;;;;;;;;;;19.34;93.76;100311.33;1647618;87;20217;-58
2022/05/04 14:56:03;;;;;;;;;;;;;;;19.52;92.87;100313.78;1648054;87;20233;-60
2022/05/04 14:59:08;;;;;;;;;;;;;;;19.50;92.17;100315.94;1631796;86;20251;-60
2022/05/04 15:02:13;;;;;;;;;;;;;;;19.45;92.19;100310.23;1634787;86;20248;-59
2022/05/04 15:05:21;;;;;;;;;;;;;;;19.48;94.39;100323.65;1633104;86;20217;-60
2022/05/04 15:08:28;;;;;;;;;;;;;;;19.63;93.65;100317.14;1633813;86;20225;-60
2022/05/04 15:11:33;;;;;;;;;;;;;;;19.61;92.22;100320.69;1635156;86;20233;-64
2022/05/04 15:14:38;;;;;;;;;;;;;;;19.54;91.46;100322.70;1632128;86;20233;-63
2022/05/04 15:17:43;;;;;;;;;;;;;;;19.56;91.13;100332.52;1632321;86;20217;-62
2022/05/04 15:20:50;;;;;;;;;;;;;;;20.04;91.29;100326.87;1665352;85;20221;-62
2022/05/04 15:23:55;;;;;;;;;;;;;;;20.67;90.42;100329.30;1648961;87;20251;-62
2022/05/04 15:27:01;;;;;;;;;;;;;;;21.36;91.81;100338.95;1649480;85;20227;-61
2022/05/04 15:30:06;;;;;;;;;;;;;;;21.53;89.64;100341.81;1647255;87;20277;-63
2022/05/04 15:33:13;;;;;;;;;;;;;;;21.70;89.46;100340.78;1650098;86;20486;-62
2022/05/04 15:36:22;;;;;;;;;;;;;;;21.86;87.89;100365.09;1650894;86;20197;-63
2022/05/04 15:39:28;;;;;;;;;;;;;;;21.76;87.60;100354.28;1633861;86;20534;-61
2022/05/04 15:42:34;;;;;;;;;;;;;;;21.91;87.41;100356.80;1635364;86;20526;-62
2022/05/04 15:45:40;;;;;;;;;;;;;;;22.18;86.44;100353.68;1653786;83;20187;-63
2022/05/04 15:48:46;;;;;;;;;;;;;;;22.21;86.43;100356.53;1678517;85;20227;-63
2022/05/04 15:51:54;;;;;;;;;;;;;;;22.39;87.84;100359.06;1678072;85;20266;-62
2022/05/04 15:55:01;;;;;;;;;;;;;;;22.78;86.09;100353.03;1678243;85;20208;-63
2022/05/04 15:58:07;;;;;;;;;;;;;;;22.31;84.91;100362.84;1679153;85;20290;-63
2022/05/04 16:01:14;;;;;;;;;;;;;;;21.68;85.97;100372.22;1677418;85;20194;-63
2022/05/04 16:04:21;;;;;;;;;;;;;;;21.26;86.67;100379.14;1678604;85;20524;-62
2022/05/04 16:07:26;;;;;;;;;;;;;;;20.89;86.64;100379.08;1678562;85;20203;-61
2022/05/04 16:10:32;;;;;;;;;;;;;;;20.45;86.56;100376.89;1678200;85;20247;-63
2022/05/04 16:13:37;;;;;;;;;;;;;;;20.27;87.00;100376.97;1677995;85;20625;-62
2022/05/04 16:23:32;;;;;;;;;;;;;;;20.70;85.07;100402.55;1678195;85;20603;-62
2022/05/04 16:26:37;;;;;;;;;;;;;;;20.46;85.05;100407.24;1676774;85;20250;-62
2022/05/04 16:29:41;;;;;;;;;;;;;;;20.10;85.12;100406.52;1677210;85;20223;-62
2022/05/04 16:32:47;;;;;;;;;;;;;;;19.85;85.58;100411.38;1671992;84;20291;-62
2022/05/04 16:35:51;;;;;;;;;;;;;;;19.62;85.74;100414.03;1677424;85;20215;-62
2022/05/04 16:38:57;;;;;;;;;;;;;;;19.36;85.63;100423.53;1676637;85;20519;-62
2022/05/04 16:42:03;;;;;;;;;;;;;;;19.06;85.80;100423.42;1676738;85;20583;-62
2022/05/04 16:45:08;;;;;;;;;;;;;;;18.81;86.13;100432.33;1673246;84;20214;-62
2022/05/04 16:48:15;;;;;;;;;;;;;;;18.68;86.39;100435.22;1663235;84;20529;-62